Time;durP1;ratioP1;P1;durP2;ratioP2;P2;SDS_P1;SDS_P2;PMS_P1;PMS_P2;Temp;Humidity;BMP_temperature;BMP_pressure;BME280_temperature;BME280_humidity;BME280_pressure;Samples;Min_cycle;Max_cycle;Signal;HPM_P1;HPM_P2
2021/07/03 00:00:44;;;;;;;7.22;5.18;;;25.20;81.90;;;;;;4248152;27;20047;-72
2021/07/03 00:02:47;;;;;;;8.13;5.78;;;25.30;82.60;;;;;;4246240;27;20057;-72
2021/07/03 00:04:51;;;;;;;8.68;5.07;;;25.20;82.60;;;;;;4248735;27;20055;-72
2021/07/03 00:06:54;;;;;;;9.02;5.60;;;25.30;82.50;;;;;;4247951;27;20069;-71
2021/07/03 00:08:57;;;;;;;6.95;5.90;;;25.30;83.00;;;;;;4247569;27;20047;-72
2021/07/03 00:11:02;;;;;;;7.05;5.75;;;25.30;82.70;;;;;;4248981;27;20055;-72
2021/07/03 00:13:05;;;;;;;8.18;5.97;;;25.40;82.30;;;;;;4247427;27;20403;-72
2021/07/03 00:15:13;;;;;;;7.15;6.35;;;25.30;82.10;;;;;;4246900;27;20057;-72
2021/07/03 00:17:16;;;;;;;10.27;5.63;;;25.20;82.80;;;;;;4247256;27;20051;-71
2021/07/03 00:19:19;;;;;;;6.47;5.82;;;25.30;82.60;;;;;;4247598;27;20062;-72
2021/07/03 00:21:23;;;;;;;10.32;5.70;;;25.40;82.60;;;;;;4247458;27;20504;-71
2021/07/03 00:23:27;;;;;;;5.70;5.20;;;25.40;82.30;;;;;;4247000;27;20058;-71
2021/07/03 00:25:30;;;;;;;6.65;6.05;;;25.40;82.40;;;;;;4247802;27;20051;-71
2021/07/03 00:27:33;;;;;;;10.15;6.05;;;25.40;82.50;;;;;;4250600;27;20062;-72
2021/07/03 00:29:36;;;;;;;6.15;5.40;;;25.30;82.40;;;;;;4250957;27;20070;-71
2021/07/03 00:31:39;;;;;;;8.68;6.05;;;25.40;82.40;;;;;;4249531;27;20061;-73
2021/07/03 00:33:42;;;;;;;6.20;5.60;;;25.40;82.50;;;;;;4229287;28;20056;-72
2021/07/03 00:35:45;;;;;;;8.07;5.82;;;25.30;83.00;;;;;;4247160;27;20058;-72
2021/07/03 00:37:50;;;;;;;9.90;6.20;;;25.30;83.30;;;;;;4247144;27;20051;-73
2021/07/03 00:39:53;;;;;;;9.15;5.78;;;25.30;83.20;;;;;;4247471;27;20410;-72
2021/07/03 00:41:56;;;;;;;8.88;5.57;;;25.30;83.00;;;;;;4246832;27;20085;-72
2021/07/03 00:43:59;;;;;;;6.28;5.63;;;25.20;83.10;;;;;;4247137;27;20054;-71
2021/07/03 00:46:02;;;;;;;10.20;5.85;;;25.20;83.30;;;;;;4247125;27;20487;-72
2021/07/03 00:48:06;;;;;;;6.07;5.47;;;25.20;83.40;;;;;;4247210;27;20134;-70
2021/07/03 00:50:10;;;;;;;8.75;5.88;;;25.20;83.50;;;;;;4246909;27;20062;-72
2021/07/03 00:52:13;;;;;;;7.63;5.53;;;25.10;83.50;;;;;;4231597;27;20617;-72
2021/07/03 00:54:21;;;;;;;7.22;5.22;;;25.10;83.10;;;;;;4245227;27;20467;-72
2021/07/03 00:56:27;;;;;;;9.52;5.82;;;25.00;83.50;;;;;;4247151;27;20051;-71
2021/07/03 00:58:30;;;;;;;7.22;5.38;;;25.00;83.30;;;;;;4246679;27;20051;-71
2021/07/03 01:00:33;;;;;;;9.48;5.70;;;24.90;83.80;;;;;;4247419;27;20061;-71
2021/07/03 01:02:36;;;;;;;9.73;6.05;;;25.00;83.50;;;;;;4248777;27;20519;-72
2021/07/03 01:04:40;;;;;;;9.05;5.93;;;24.90;84.30;;;;;;4235431;28;20048;-72
2021/07/03 01:06:43;;;;;;;9.73;6.00;;;24.90;84.10;;;;;;4247245;27;20495;-71
2021/07/03 01:08:46;;;;;;;10.25;6.30;;;24.90;84.10;;;;;;4247712;27;20057;-70
2021/07/03 01:10:51;;;;;;;13.93;5.55;;;24.80;85.00;;;;;;4247469;27;20047;-72
2021/07/03 01:12:54;;;;;;;7.28;5.60;;;24.80;84.30;;;;;;4247626;27;20418;-71
2021/07/03 01:14:57;;;;;;;6.35;5.75;;;24.80;84.50;;;;;;4247112;27;20051;-71
2021/07/03 01:17:00;;;;;;;9.82;6.05;;;24.80;84.80;;;;;;4246954;27;20140;-72
2021/07/03 01:19:03;;;;;;;9.38;6.10;;;24.80;85.10;;;;;;4246553;27;20047;-73
2021/07/03 01:21:07;;;;;;;7.60;6.32;;;24.70;85.60;;;;;;4228789;28;20048;-72
2021/07/03 01:23:12;;;;;;;8.55;6.28;;;24.70;85.80;;;;;;4247058;27;20059;-73
2021/07/03 01:25:16;;;;;;;8.15;5.80;;;24.60;86.10;;;;;;4228555;28;20492;-71
2021/07/03 01:27:19;;;;;;;9.77;6.22;;;24.60;85.80;;;;;;4249380;27;20063;-71
2021/07/03 01:29:24;;;;;;;7.75;5.93;;;24.60;86.60;;;;;;4249496;27;20047;-72
2021/07/03 01:31:27;;;;;;;6.57;5.88;;;24.60;86.00;;;;;;4249027;27;20085;-71
2021/07/03 01:33:30;;;;;;;6.78;5.75;;;24.60;86.70;;;;;;4246793;27;20516;-71
2021/07/03 01:35:34;;;;;;;8.95;6.15;;;24.60;86.70;;;;;;4246004;27;20059;-73
2021/07/03 01:37:37;;;;;;;6.18;5.57;;;24.60;87.00;;;;;;4246769;27;20050;-73
2021/07/03 01:39:41;;;;;;;9.85;5.75;;;24.60;86.40;;;;;;4246027;27;20047;-72
2021/07/03 01:41:45;;;;;;;9.18;5.70;;;24.60;86.50;;;;;;4246465;27;20054;-72
2021/07/03 01:43:48;;;;;;;7.55;5.70;;;24.60;86.10;;;;;;4246211;27;20134;-72
2021/07/03 01:45:52;;;;;;;9.43;5.35;;;24.60;87.00;;;;;;4246379;27;20051;-71
2021/07/03 01:47:55;;;;;;;7.68;6.20;;;24.60;87.30;;;;;;4246075;27;20062;-72
2021/07/03 01:49:59;;;;;;;6.70;5.82;;;24.50;86.90;;;;;;4246170;27;20070;-72
2021/07/03 01:52:02;;;;;;;8.70;6.28;;;24.40;87.50;;;;;;4238471;27;20055;-73
2021/07/03 01:54:05;;;;;;;8.88;6.90;;;24.40;87.70;;;;;;4226332;28;20054;-72
2021/07/03 01:56:10;;;;;;;7.90;6.63;;;24.50;88.40;;;;;;4242917;27;20058;-72
2021/07/03 01:58:17;;;;;;;9.73;6.78;;;24.40;87.60;;;;;;4246050;27;20065;-72
2021/07/03 02:00:21;;;;;;;11.18;6.15;;;24.50;87.60;;;;;;4245846;27;20411;-72
2021/07/03 02:02:24;;;;;;;9.68;6.63;;;24.40;88.00;;;;;;4235111;27;20499;-72
2021/07/03 02:04:27;;;;;;;8.70;6.18;;;24.40;87.90;;;;;;4228236;28;20516;-71
2021/07/03 02:06:30;;;;;;;9.35;6.68;;;24.40;87.60;;;;;;4246295;27;20205;-72
2021/07/03 02:08:33;;;;;;;9.45;6.57;;;24.30;88.00;;;;;;4246183;27;20574;-72
2021/07/03 02:10:36;;;;;;;7.60;5.93;;;24.40;87.70;;;;;;4246240;27;20051;-72
2021/07/03 02:12:42;;;;;;;10.20;6.18;;;24.40;88.30;;;;;;4246262;27;20047;-72
2021/07/03 02:14:46;;;;;;;7.72;6.20;;;24.40;88.60;;;;;;4246864;27;20043;-73
2021/07/03 02:16:49;;;;;;;10.38;5.80;;;24.30;88.30;;;;;;4227945;28;20047;-72
2021/07/03 02:18:52;;;;;;;10.68;6.70;;;24.40;88.00;;;;;;4246146;27;20061;-72
2021/07/03 02:20:55;;;;;;;10.20;6.15;;;24.40;88.70;;;;;;4245903;27;20047;-72
2021/07/03 02:22:58;;;;;;;6.93;6.00;;;24.40;89.10;;;;;;4245703;27;20047;-71
2021/07/03 02:25:02;;;;;;;7.93;5.82;;;24.30;88.90;;;;;;4246015;27;20050;-72
2021/07/03 02:27:05;;;;;;;11.15;5.85;;;24.20;89.30;;;;;;4230416;28;20055;-72
2021/07/03 02:29:10;;;;;;;7.18;5.88;;;24.20;89.40;;;;;;4246367;27;20055;-72
2021/07/03 02:31:13;;;;;;;9.75;6.18;;;24.20;89.00;;;;;;4247104;27;20059;-72
2021/07/03 02:33:16;;;;;;;8.48;6.28;;;24.30;88.80;;;;;;4245903;27;20073;-73
2021/07/03 02:35:20;;;;;;;6.57;5.80;;;24.30;88.70;;;;;;4245993;27;20132;-72
2021/07/03 02:37:23;;;;;;;6.60;5.53;;;24.30;88.20;;;;;;4246688;27;20066;-72
2021/07/03 02:39:26;;;;;;;10.18;6.05;;;24.40;88.20;;;;;;4249771;27;20475;-72
2021/07/03 02:41:29;;;;;;;8.27;6.57;;;24.30;89.20;;;;;;4249838;27;20058;-71
2021/07/03 02:43:32;;;;;;;7.90;6.25;;;24.30;89.00;;;;;;4250094;27;20061;-72
2021/07/03 02:45:37;;;;;;;8.73;6.07;;;24.30;89.10;;;;;;4249873;27;20051;-72
2021/07/03 02:47:40;;;;;;;11.30;6.15;;;24.30;89.20;;;;;;4249005;27;20510;-71
2021/07/03 02:49:43;;;;;;;8.52;6.00;;;24.30;89.40;;;;;;4248943;27;20047;-71
2021/07/03 02:51:46;;;;;;;9.75;6.57;;;24.20;89.90;;;;;;4248808;27;20053;-72
2021/07/03 02:53:50;;;;;;;7.30;6.53;;;24.20;89.40;;;;;;4248615;27;20047;-71
2021/07/03 02:55:52;;;;;;;6.90;5.85;;;24.20;89.50;;;;;;4248817;27;20051;-72
2021/07/03 02:57:55;;;;;;;9.15;5.88;;;24.20;90.00;;;;;;4230177;28;20058;-71
2021/07/03 02:59:58;;;;;;;7.10;6.20;;;24.10;90.10;;;;;;4248960;27;20056;-71
2021/07/03 03:02:03;;;;;;;8.32;6.25;;;24.10;90.00;;;;;;4248619;27;20055;-71
2021/07/03 03:04:06;;;;;;;8.75;5.88;;;24.20;90.10;;;;;;4249157;27;20407;-71
2021/07/03 03:06:11;;;;;;;9.43;6.40;;;24.20;90.00;;;;;;4249170;27;20126;-72
2021/07/03 03:08:14;;;;;;;10.73;5.80;;;24.20;90.10;;;;;;4248243;27;20055;-71
2021/07/03 03:10:18;;;;;;;8.07;6.10;;;24.20;90.00;;;;;;4249025;27;20047;-72
2021/07/03 03:12:21;;;;;;;12.27;6.10;;;24.20;90.00;;;;;;4248434;27;20077;-72
2021/07/03 03:14:24;;;;;;;8.85;5.88;;;24.20;90.00;;;;;;4248535;27;20051;-73
2021/07/03 03:16:29;;;;;;;8.10;6.55;;;24.20;90.10;;;;;;4249000;27;20074;-71
2021/07/03 03:18:33;;;;;;;8.63;5.93;;;24.10;90.10;;;;;;4249091;27;20054;-71
2021/07/03 03:20:36;;;;;;;8.82;6.68;;;24.20;90.00;;;;;;4250824;27;20471;-72
2021/07/03 03:22:41;;;;;;;7.78;6.22;;;24.20;89.70;;;;;;4252166;27;20055;-72
2021/07/03 03:24:46;;;;;;;10.32;6.22;;;24.20;89.60;;;;;;4247780;27;20061;-71
2021/07/03 03:26:49;;;;;;;8.15;6.13;;;24.20;89.80;;;;;;4251711;27;20055;-71
2021/07/03 03:28:52;;;;;;;7.43;6.00;;;24.10;90.00;;;;;;4251928;27;20035;-72
2021/07/03 03:30:55;;;;;;;11.70;5.90;;;24.20;89.90;;;;;;4250375;27;20062;-72
2021/07/03 03:32:58;;;;;;;9.90;5.80;;;24.20;89.90;;;;;;4248315;27;20051;-71
2021/07/03 03:35:02;;;;;;;8.23;5.63;;;24.20;89.80;;;;;;4244312;27;20057;-72
2021/07/03 03:37:05;;;;;;;8.70;5.57;;;24.10;89.70;;;;;;4248686;27;20051;-71
2021/07/03 03:39:08;;;;;;;7.95;5.80;;;24.20;89.70;;;;;;4248143;27;20618;-72
2021/07/03 03:41:13;;;;;;;8.43;5.23;;;24.20;89.80;;;;;;4248208;27;20043;-72
2021/07/03 03:43:16;;;;;;;9.23;5.97;;;24.20;90.00;;;;;;4248219;27;21055;-71
2021/07/03 03:45:19;;;;;;;8.10;5.72;;;24.20;89.60;;;;;;4248000;27;20069;-71
2021/07/03 03:47:23;;;;;;;6.63;5.80;;;24.20;89.70;;;;;;4229845;27;20055;-71
2021/07/03 03:49:26;;;;;;;6.80;5.50;;;24.20;89.50;;;;;;4247470;27;20087;-72
2021/07/03 03:51:30;;;;;;;9.48;5.70;;;24.20;89.50;;;;;;4238427;27;20062;-71
2021/07/03 03:53:33;;;;;;;10.30;6.35;;;24.20;90.00;;;;;;4231419;27;20146;-73
2021/07/03 03:55:37;;;;;;;9.85;6.25;;;24.20;90.00;;;;;;4241367;27;20051;-71
2021/07/03 03:57:40;;;;;;;8.68;5.93;;;24.20;90.00;;;;;;4247785;27;20051;-71
2021/07/03 03:59:43;;;;;;;8.13;5.47;;;24.20;90.20;;;;;;4247705;27;20055;-72
2021/07/03 04:01:46;;;;;;;9.13;6.00;;;24.20;90.10;;;;;;4229727;28;20055;-71
2021/07/03 04:03:49;;;;;;;9.30;6.07;;;24.20;90.10;;;;;;4248156;27;20395;-72
2021/07/03 04:05:52;;;;;;;8.27;6.18;;;24.20;90.60;;;;;;4246353;27;20546;-72
2021/07/03 04:07:56;;;;;;;12.65;6.47;;;24.20;90.40;;;;;;4248152;27;20047;-72
2021/07/03 04:10:00;;;;;;;7.75;5.85;;;24.20;90.70;;;;;;4247706;27;20467;-73
2021/07/03 04:12:03;;;;;;;8.40;6.13;;;24.10;90.40;;;;;;4248248;27;20052;-72
2021/07/03 04:14:06;;;;;;;8.13;5.93;;;24.20;90.50;;;;;;4250672;27;20052;-73
2021/07/03 04:16:09;;;;;;;9.82;6.45;;;24.20;90.30;;;;;;4258761;27;20058;-72
2021/07/03 04:18:12;;;;;;;10.45;6.20;;;24.20;90.40;;;;;;4237945;28;20058;-73
2021/07/03 04:20:15;;;;;;;7.32;6.13;;;24.10;90.50;;;;;;4247731;27;20189;-72
2021/07/03 04:22:19;;;;;;;6.28;5.60;;;24.20;90.50;;;;;;4254867;27;20075;-72
2021/07/03 04:24:23;;;;;;;7.55;5.70;;;24.20;90.40;;;;;;4251927;27;20051;-73
2021/07/03 04:26:26;;;;;;;10.23;6.55;;;24.20;90.60;;;;;;4250930;27;20082;-72
2021/07/03 04:28:29;;;;;;;8.00;5.43;;;24.10;90.70;;;;;;4250319;27;20055;-72
2021/07/03 04:30:32;;;;;;;6.72;5.43;;;24.20;90.50;;;;;;4249697;27;20482;-72
2021/07/03 04:32:36;;;;;;;7.22;5.68;;;24.20;90.70;;;;;;4251183;27;20062;-71
2021/07/03 04:34:42;;;;;;;6.85;5.72;;;24.20;90.90;;;;;;4247987;27;20062;-72
2021/07/03 04:36:45;;;;;;;6.45;5.50;;;24.20;90.70;;;;;;4248016;27;20051;-72
2021/07/03 04:38:48;;;;;;;9.85;6.32;;;24.20;90.60;;;;;;4247863;27;20055;-72
2021/07/03 04:40:53;;;;;;;6.63;5.80;;;24.20;90.60;;;;;;4248827;27;20043;-72
2021/07/03 04:42:56;;;;;;;10.18;6.05;;;24.30;90.80;;;;;;4249991;27;20047;-72
2021/07/03 04:44:59;;;;;;;8.15;6.53;;;24.30;90.90;;;;;;4250000;27;20061;-73
2021/07/03 04:47:02;;;;;;;8.48;6.10;;;24.30;91.00;;;;;;4250054;27;20122;-73
2021/07/03 04:49:05;;;;;;;6.90;5.50;;;24.30;91.00;;;;;;4249475;27;20055;-73
2021/07/03 04:51:08;;;;;;;7.43;6.07;;;24.30;91.00;;;;;;4247616;27;20051;-73
2021/07/03 04:53:11;;;;;;;6.63;5.80;;;24.30;91.20;;;;;;4247705;27;20573;-72
2021/07/03 04:55:15;;;;;;;7.90;5.75;;;24.30;91.10;;;;;;4247462;27;20043;-72
2021/07/03 04:57:19;;;;;;;13.00;6.35;;;24.40;91.30;;;;;;4248448;27;20051;-73
2021/07/03 04:59:22;;;;;;;8.40;6.25;;;24.40;91.70;;;;;;4247807;27;20082;-72
2021/07/03 05:01:26;;;;;;;7.57;6.70;;;24.40;91.70;;;;;;4246404;27;20047;-72
2021/07/03 05:03:29;;;;;;;11.23;7.35;;;24.40;91.70;;;;;;4246917;27;20055;-72
2021/07/03 05:05:32;;;;;;;9.52;6.70;;;24.40;92.20;;;;;;4246704;27;20058;-72
2021/07/03 05:07:35;;;;;;;13.65;7.15;;;24.40;91.80;;;;;;4228137;28;20059;-72
2021/07/03 05:09:39;;;;;;;7.60;5.78;;;24.40;92.30;;;;;;4246448;27;20093;-71
2021/07/03 05:11:42;;;;;;;9.95;5.82;;;24.40;92.30;;;;;;4246510;27;20154;-72
2021/07/03 05:13:46;;;;;;;10.90;6.28;;;24.40;92.00;;;;;;4235201;27;20434;-71
2021/07/03 05:15:49;;;;;;;11.57;6.60;;;24.50;91.70;;;;;;4246936;27;20055;-72
2021/07/03 05:17:52;;;;;;;7.22;5.78;;;24.50;91.90;;;;;;4246243;27;20132;-72
2021/07/03 05:19:56;;;;;;;10.95;6.50;;;24.50;92.20;;;;;;4246573;27;20059;-71
2021/07/03 05:21:59;;;;;;;10.80;6.57;;;24.40;92.60;;;;;;4246171;27;20047;-72
2021/07/03 05:24:02;;;;;;;11.82;7.07;;;24.50;92.60;;;;;;4247725;27;20526;-72
2021/07/03 05:26:05;;;;;;;11.57;6.75;;;24.60;92.70;;;;;;4229155;28;20055;-72
2021/07/03 05:28:09;;;;;;;8.35;6.75;;;24.60;92.20;;;;;;4247135;27;20131;-72
2021/07/03 05:30:14;;;;;;;11.18;6.13;;;24.60;92.10;;;;;;4246691;27;20456;-71
2021/07/03 05:32:17;;;;;;;7.38;6.30;;;24.70;92.40;;;;;;4246483;27;20058;-73
2021/07/03 05:34:20;;;;;;;11.27;6.68;;;24.60;92.50;;;;;;4246158;27;20047;-73
2021/07/03 05:36:24;;;;;;;7.75;6.45;;;24.60;92.40;;;;;;4230355;27;20060;-73
2021/07/03 05:38:27;;;;;;;7.18;5.85;;;24.70;92.20;;;;;;4241989;27;20419;-72
2021/07/03 05:40:30;;;;;;;8.60;6.18;;;24.70;92.00;;;;;;4246181;27;20060;-72
2021/07/03 05:42:33;;;;;;;9.07;6.40;;;24.80;92.40;;;;;;4246088;27;20054;-72
2021/07/03 05:44:36;;;;;;;7.95;6.32;;;24.80;92.50;;;;;;4246152;27;20043;-72
2021/07/03 05:46:41;;;;;;;11.88;6.93;;;24.80;92.60;;;;;;4246139;27;20460;-72
2021/07/03 05:48:44;;;;;;;8.93;7.43;;;24.70;92.70;;;;;;4245609;27;20059;-71
2021/07/03 05:50:47;;;;;;;11.35;6.28;;;24.80;92.50;;;;;;4245987;27;20051;-71
2021/07/03 05:52:51;;;;;;;9.93;6.70;;;24.70;92.60;;;;;;4245877;27;20051;-72
2021/07/03 05:54:54;;;;;;;9.18;6.32;;;24.80;92.20;;;;;;4246218;27;20051;-72
2021/07/03 05:56:57;;;;;;;12.93;6.30;;;24.80;92.50;;;;;;4235536;27;20523;-72
2021/07/03 05:59:03;;;;;;;11.35;6.68;;;24.90;92.30;;;;;;4240703;27;20051;-72
2021/07/03 06:01:06;;;;;;;8.20;6.43;;;25.00;92.10;;;;;;4247099;27;20142;-72
2021/07/03 06:03:10;;;;;;;12.82;6.45;;;25.00;92.00;;;;;;4247420;27;20377;-71
2021/07/03 06:05:14;;;;;;;9.05;6.82;;;25.00;91.90;;;;;;4247262;27;20096;-70
2021/07/03 06:07:17;;;;;;;13.57;7.45;;;25.10;92.10;;;;;;4247586;27;20061;-72
2021/07/03 06:09:20;;;;;;;10.10;7.15;;;25.10;91.80;;;;;;4247207;27;20513;-71
2021/07/03 06:11:23;;;;;;;9.70;6.95;;;25.00;91.90;;;;;;4247022;27;20043;-72
2021/07/03 06:13:26;;;;;;;10.15;6.25;;;25.00;92.00;;;;;;4246600;27;20404;-72
2021/07/03 06:15:29;;;;;;;10.57;6.32;;;25.10;91.90;;;;;;4246367;27;20066;-72
2021/07/03 06:17:32;;;;;;;8.38;6.30;;;25.00;91.80;;;;;;4247340;27;20051;-72
2021/07/03 06:19:37;;;;;;;9.10;6.75;;;25.10;91.70;;;;;;4246078;27;20051;-72
2021/07/03 06:21:40;;;;;;;7.35;6.60;;;25.10;91.70;;;;;;4246244;27;20047;-72
2021/07/03 06:23:43;;;;;;;7.30;6.20;;;25.00;91.10;;;;;;4248733;27;20057;-72
2021/07/03 06:25:46;;;;;;;8.18;5.82;;;25.00;90.90;;;;;;4246404;27;20055;-72
2021/07/03 06:27:49;;;;;;;7.10;5.68;;;24.90;90.30;;;;;;4247299;27;20484;-73
2021/07/03 06:29:52;;;;;;;7.20;5.55;;;24.80;91.00;;;;;;4245492;27;20054;-71
2021/07/03 06:31:55;;;;;;;10.55;5.90;;;24.70;91.30;;;;;;4246209;27;20059;-72
2021/07/03 06:33:58;;;;;;;6.43;5.38;;;24.60;91.50;;;;;;4245920;27;20075;-72
2021/07/03 06:36:03;;;;;;;8.20;5.55;;;24.80;91.50;;;;;;4245766;27;20066;-73
2021/07/03 06:38:06;;;;;;;9.55;5.35;;;25.00;91.20;;;;;;4227870;28;20103;-72
2021/07/03 06:40:10;;;;;;;8.43;5.72;;;25.00;90.70;;;;;;4245684;27;20043;-73
2021/07/03 06:42:14;;;;;;;7.55;5.85;;;25.20;90.70;;;;;;4245692;27;20059;-72
2021/07/03 06:44:17;;;;;;;9.85;5.97;;;25.30;90.50;;;;;;4245443;27;20622;-73
2021/07/03 06:46:21;;;;;;;7.63;5.88;;;25.30;90.10;;;;;;4245666;27;20045;-71
2021/07/03 06:48:25;;;;;;;12.25;6.43;;;25.20;90.50;;;;;;4245650;27;20055;-71
2021/07/03 06:50:28;;;;;;;8.20;6.60;;;25.20;90.90;;;;;;4245524;27;20055;-72
2021/07/03 06:52:33;;;;;;;9.35;5.53;;;25.20;89.60;;;;;;4235527;28;20496;-71
2021/07/03 06:54:36;;;;;;;9.02;6.15;;;25.20;90.00;;;;;;4228946;28;20062;-71
2021/07/03 06:56:39;;;;;;;9.70;5.32;;;25.30;90.20;;;;;;4245375;27;20061;-72
2021/07/03 06:58:42;;;;;;;6.22;5.38;;;25.40;90.30;;;;;;4245550;27;20047;-72
2021/07/03 07:00:45;;;;;;;9.70;6.68;;;25.60;90.30;;;;;;4245556;27;20048;-72
2021/07/03 07:02:48;;;;;;;13.35;6.60;;;25.40;90.90;;;;;;4246002;27;20062;-71
2021/07/03 07:04:55;;;;;;;8.50;6.22;;;25.50;90.80;;;;;;4247196;27;20051;-72
2021/07/03 07:06:58;;;;;;;10.23;6.00;;;25.70;90.50;;;;;;4246356;27;20608;-71
2021/07/03 07:09:02;;;;;;;9.73;6.30;;;25.50;88.80;;;;;;4246113;27;20055;-70
2021/07/03 07:11:05;;;;;;;8.18;6.55;;;25.50;89.80;;;;;;4245681;27;20059;-71
2021/07/03 07:13:09;;;;;;;9.18;6.25;;;25.50;89.80;;;;;;4245789;27;20523;-72
2021/07/03 07:15:12;;;;;;;9.37;6.40;;;25.60;90.00;;;;;;4245978;27;20071;-72
2021/07/03 07:17:16;;;;;;;7.93;5.70;;;25.70;90.20;;;;;;4245066;27;20491;-71
2021/07/03 07:19:19;;;;;;;8.88;6.38;;;25.70;90.20;;;;;;4245419;27;20419;-72
2021/07/03 07:21:22;;;;;;;10.00;6.30;;;25.70;90.30;;;;;;4247669;27;20055;-73
2021/07/03 07:23:25;;;;;;;6.35;5.35;;;25.80;90.40;;;;;;4253310;27;20122;-71
2021/07/03 07:25:30;;;;;;;13.77;6.25;;;25.90;90.50;;;;;;4255066;27;20103;-71
2021/07/03 07:27:33;;;;;;;8.10;5.90;;;25.90;90.40;;;;;;4251116;27;20054;-71
2021/07/03 07:29:36;;;;;;;13.88;6.40;;;26.00;90.00;;;;;;4231538;28;20058;-71
2021/07/03 07:31:45;;;;;;;12.10;6.22;;;25.90;90.10;;;;;;4239607;27;20419;-72
2021/07/03 07:33:49;;;;;;;9.07;5.88;;;25.90;90.00;;;;;;4248608;27;20055;-71
2021/07/03 07:35:52;;;;;;;7.25;5.10;;;26.00;89.80;;;;;;4248675;27;20127;-73
2021/07/03 07:37:55;;;;;;;7.32;5.32;;;25.90;89.30;;;;;;4247977;27;20055;-72
2021/07/03 07:39:58;;;;;;;9.35;5.35;;;25.90;90.00;;;;;;4230337;28;20530;-72
2021/07/03 07:42:03;;;;;;;6.45;5.47;;;25.90;89.40;;;;;;4248219;27;20059;-72
2021/07/03 07:44:06;;;;;;;12.48;5.85;;;26.00;89.80;;;;;;4248569;27;20047;-71
2021/07/03 07:46:09;;;;;;;8.27;5.90;;;25.90;89.90;;;;;;4248304;27;20055;-72
2021/07/03 07:48:12;;;;;;;9.57;5.97;;;26.00;90.10;;;;;;4247794;27;20061;-72
2021/07/03 07:50:16;;;;;;;8.00;5.60;;;25.90;88.90;;;;;;4230987;28;20061;-72
2021/07/03 07:52:19;;;;;;;14.63;5.65;;;26.10;90.20;;;;;;4247003;27;20057;-72
2021/07/03 07:54:22;;;;;;;6.18;5.15;;;25.90;90.00;;;;;;4247880;27;20055;-72
2021/07/03 07:56:25;;;;;;;7.38;5.25;;;25.70;88.30;;;;;;4246112;27;20070;-73
2021/07/03 07:58:29;;;;;;;6.32;4.78;;;25.70;88.80;;;;;;4247860;27;20051;-72
2021/07/03 08:00:33;;;;;;;9.00;4.55;;;25.70;89.00;;;;;;4229654;27;20058;-71
2021/07/03 08:02:36;;;;;;;12.43;5.70;;;25.70;89.10;;;;;;4247674;27;20047;-72
2021/07/03 08:04:39;;;;;;;7.55;4.65;;;25.70;87.30;;;;;;4248031;27;20059;-72
2021/07/03 08:06:42;;;;;;;6.60;4.97;;;25.80;88.20;;;;;;4247652;27;20051;-71
2021/07/03 08:08:46;;;;;;;6.82;5.00;;;25.90;88.10;;;;;;4247655;27;20088;-72
2021/07/03 08:10:49;;;;;;;12.13;5.13;;;25.90;87.90;;;;;;4247754;27;20411;-73
2021/07/03 08:12:52;;;;;;;7.30;4.45;;;25.80;88.00;;;;;;4247892;27;20502;-73
2021/07/03 08:14:56;;;;;;;9.88;4.97;;;25.80;88.50;;;;;;4248210;27;20591;-72
2021/07/03 08:16:59;;;;;;;8.50;5.50;;;25.80;87.90;;;;;;4249917;27;20057;-72
2021/07/03 08:19:03;;;;;;;7.45;5.15;;;25.70;87.70;;;;;;4249564;27;20043;-72
2021/07/03 08:21:06;;;;;;;9.90;5.22;;;25.50;88.20;;;;;;4251095;27;20065;-72
2021/07/03 08:23:09;;;;;;;6.47;4.90;;;25.50;88.80;;;;;;4249618;27;20039;-72
2021/07/03 08:25:12;;;;;;;7.28;5.30;;;25.50;88.90;;;;;;4251025;27;20047;-74
2021/07/03 08:27:16;;;;;;;8.00;4.65;;;25.60;89.20;;;;;;4247768;27;20055;-73
2021/07/03 08:29:19;;;;;;;10.55;5.03;;;25.60;89.10;;;;;;4247302;27;20055;-74
2021/07/03 08:31:23;;;;;;;9.10;5.40;;;25.50;89.70;;;;;;4247657;27;20051;-72
2021/07/03 08:33:26;;;;;;;11.18;5.50;;;25.40;90.20;;;;;;4248780;27;20058;-73
2021/07/03 08:35:29;;;;;;;12.13;5.07;;;25.50;90.00;;;;;;4238793;27;20396;-72
2021/07/03 08:37:32;;;;;;;9.30;5.28;;;25.60;89.10;;;;;;4250677;27;20056;-72
2021/07/03 08:39:35;;;;;;;10.02;5.32;;;25.60;90.00;;;;;;4247652;27;20047;-73
2021/07/03 08:41:40;;;;;;;9.57;5.07;;;25.50;89.30;;;;;;4249489;27;20055;-73
2021/07/03 08:43:44;;;;;;;9.00;5.65;;;25.50;89.40;;;;;;4249754;27;20058;-73
2021/07/03 08:45:48;;;;;;;9.32;5.28;;;25.50;89.60;;;;;;4251337;27;20403;-71
2021/07/03 08:47:52;;;;;;;14.63;5.57;;;25.40;89.70;;;;;;4252176;27;20065;-73
2021/07/03 08:49:58;;;;;;;8.23;5.13;;;25.50;89.90;;;;;;4233106;28;20428;-71
2021/07/03 08:52:01;;;;;;;12.32;5.53;;;25.40;90.00;;;;;;4248529;27;20051;-71
2021/07/03 08:54:05;;;;;;;7.97;5.30;;;25.40;90.30;;;;;;4250648;27;20053;-71
2021/07/03 08:56:08;;;;;;;9.48;6.50;;;25.20;90.30;;;;;;4221859;28;20055;-71
2021/07/03 08:58:11;;;;;;;11.82;5.80;;;25.10;90.50;;;;;;4248002;27;20047;-72
2021/07/03 09:00:16;;;;;;;7.82;5.70;;;25.20;90.50;;;;;;4247220;27;20061;-72
2021/07/03 09:02:19;;;;;;;;;;;25.20;90.80;;;;;;4246957;27;20059;-72
2021/07/03 09:04:35;;;;;;;10.55;5.97;;;25.30;90.90;;;;;;4247308;27;19927;-71
2021/07/03 09:06:38;;;;;;;8.75;5.72;;;25.10;91.00;;;;;;4236894;27;20051;-71
2021/07/03 09:08:52;;;;;;;9.05;6.10;;;25.20;91.70;;;;;;4247370;27;20062;-72
2021/07/03 09:11:00;;;;;;;8.43;6.07;;;25.10;91.70;;;;;;4241676;27;20062;-72
2021/07/03 09:13:05;;;;;;;8.48;5.53;;;24.90;92.10;;;;;;4241056;27;20055;-72
2021/07/03 09:15:09;;;;;;;10.52;6.28;;;25.10;92.00;;;;;;4239310;27;20057;-74
2021/07/03 09:17:15;;;;;;;9.95;6.78;;;25.20;92.30;;;;;;4250467;27;20047;-72
2021/07/03 09:19:26;;;;;;;9.35;6.32;;;25.20;93.00;;;;;;4250570;27;20055;-72
2021/07/03 09:21:32;;;;;;;12.95;6.50;;;25.20;93.60;;;;;;4253679;27;20061;-72
2021/07/03 09:23:37;;;;;;;14.60;6.50;;;25.30;93.30;;;;;;4252842;27;20526;-72
2021/07/03 09:25:43;;;;;;;7.57;6.30;;;25.30;92.90;;;;;;4229364;28;20721;-72
2021/07/03 09:27:46;;;;;;;9.55;6.72;;;25.30;92.90;;;;;;4246569;27;20051;-73
2021/07/03 09:29:50;;;;;;;8.60;6.70;;;25.20;92.40;;;;;;4246082;27;20132;-71
2021/07/03 09:31:53;;;;;;;9.20;6.57;;;25.00;92.90;;;;;;4246092;27;20051;-72
2021/07/03 09:33:56;;;;;;;12.35;6.35;;;25.00;92.80;;;;;;4246407;27;20066;-73
2021/07/03 09:36:03;;;;;;;16.63;7.15;;;25.00;93.00;;;;;;4246548;27;20055;-72
2021/07/03 09:38:08;;;;;;;12.00;7.03;;;25.10;93.50;;;;;;4246722;27;20051;-72
2021/07/03 09:40:14;;;;;;;8.57;7.10;;;24.90;93.90;;;;;;4246012;27;20081;-72
2021/07/03 09:42:17;;;;;;;9.75;6.85;;;24.70;94.20;;;;;;4239861;27;20051;-74
2021/07/03 09:44:20;;;;;;;9.32;6.47;;;24.80;93.90;;;;;;4246464;27;20053;-72
2021/07/03 09:46:24;;;;;;;8.55;7.15;;;25.00;93.60;;;;;;4245732;27;20058;-71
2021/07/03 09:48:27;;;;;;;10.15;6.82;;;25.00;93.90;;;;;;4228525;28;20062;-71
2021/07/03 09:50:31;;;;;;;11.50;7.00;;;25.10;93.70;;;;;;4245603;27;20047;-71
2021/07/03 09:52:34;;;;;;;10.73;7.22;;;25.00;93.40;;;;;;4245597;27;20081;-72
2021/07/03 09:54:40;;;;;;;17.80;7.00;;;25.00;93.70;;;;;;4245931;27;20410;-71
2021/07/03 09:56:44;;;;;;;35.83;8.10;;;25.10;94.00;;;;;;4245460;27;20487;-71
2021/07/03 09:58:47;;;;;;;15.13;6.60;;;25.00;93.00;;;;;;4242787;27;20085;-71
2021/07/03 10:00:50;;;;;;;12.95;7.00;;;25.20;93.10;;;;;;4244848;27;20617;-70
2021/07/03 10:02:54;;;;;;;10.75;6.45;;;25.20;92.80;;;;;;4245567;27;20054;-71
2021/07/03 10:04:56;;;;;;;8.57;6.40;;;25.10;93.00;;;;;;4245705;27;20051;-72
2021/07/03 10:07:03;;;;;;;11.77;6.68;;;24.90;92.90;;;;;;4245674;27;20047;-71
2021/07/03 10:09:11;;;;;;;9.60;6.40;;;24.80;93.20;;;;;;4245488;27;20053;-73
2021/07/03 10:11:21;;;;;;;9.68;6.68;;;24.70;93.20;;;;;;4245765;27;20055;-72
2021/07/03 10:13:25;;;;;;;11.18;6.10;;;24.80;93.20;;;;;;4242140;27;20692;-72
2021/07/03 10:15:29;;;;;;;12.70;6.40;;;24.90;92.80;;;;;;4245981;27;20445;-72
2021/07/03 10:17:34;;;;;;;8.73;5.88;;;24.90;92.70;;;;;;4245555;27;20053;-72
2021/07/03 10:19:39;;;;;;;10.40;5.97;;;24.70;91.90;;;;;;4246524;27;20509;-71
2021/07/03 10:21:44;;;;;;;10.20;6.05;;;24.70;92.40;;;;;;4249748;27;20055;-71
2021/07/03 10:23:47;;;;;;;10.23;5.90;;;24.80;92.30;;;;;;4249779;27;20053;-72
2021/07/03 10:25:51;;;;;;;8.30;6.32;;;24.80;92.60;;;;;;4247655;27;20384;-72
2021/07/03 10:27:57;;;;;;;9.02;5.80;;;24.80;92.20;;;;;;4245198;27;20058;-72
2021/07/03 10:30:01;;;;;;;10.90;5.90;;;24.90;92.40;;;;;;4245630;27;20047;-72
2021/07/03 10:32:05;;;;;;;8.20;5.35;;;24.90;92.50;;;;;;4245465;27;20055;-74
2021/07/03 10:34:08;;;;;;;7.05;4.95;;;25.00;92.80;;;;;;4245671;27;20565;-72
2021/07/03 10:36:25;;;;;;;21.98;6.22;;;25.10;91.40;;;;;;4245490;27;20055;-71
2021/07/03 10:38:30;;;;;;;8.25;5.00;;;25.00;90.80;;;;;;4244983;27;20055;-72
2021/07/03 10:40:34;;;;;;;7.53;5.10;;;25.10;90.70;;;;;;4245646;27;20077;-72
2021/07/03 10:42:37;;;;;;;11.40;4.93;;;25.20;90.20;;;;;;4245333;27;20070;-72